Terminal Aerodrome Forecast
Issued by NWS

Home | Current Version | Previous Version | Text Only | Print | Product List | Glossary On
Versions: 1 2 3 4 5 6 7 8 9 10 11 12 13 14 15 16 17 18 19 20 21 22 23 24 25
753
FTUS43 KGRR 201929 AAA
TAFAZO
TAF AMD
KAZO 201929Z 2019/2118 20012KT 3SM -RA BR SCT006 OVC012
      TEMPO 2019/2023 1 1/2SM RA BR OVC006
     FM210200 27010KT 2SM -RA BR OVC006
     FM210600 30010KT 4SM -RASN BR OVC007
     FM211000 31011KT P6SM OVC015
     FM211500 32011KT P6SM SCT025 BKN040=

USA.gov is the U.S. government's official web portal to all federal, state and local government web resources and services.